createdAt,value
2022-08-29T00:00:17.933Z,1.54
2022-08-29T00:00:50.647Z,1.66
2022-08-29T00:01:22.269Z,1.69
2022-08-29T00:01:54.552Z,1.70
2022-08-29T00:02:26.058Z,1.86
2022-08-29T00:02:57.537Z,1.55
2022-08-29T00:03:29.693Z,1.53
2022-08-29T00:04:01.197Z,1.61
2022-08-29T00:04:32.696Z,1.61
2022-08-29T00:05:04.203Z,1.73
2022-08-29T00:05:35.635Z,1.98
2022-08-29T00:06:07.529Z,1.83
2022-08-29T00:06:38.955Z,1.50
2022-08-29T00:07:10.418Z,1.67
2022-08-29T00:07:41.848Z,1.32
2022-08-29T00:08:13.412Z,1.33
2022-08-29T00:08:44.943Z,1.71
2022-08-29T00:09:16.364Z,1.45
2022-08-29T00:09:48.013Z,1.80
2022-08-29T00:10:19.440Z,1.69
2022-08-29T00:10:50.876Z,1.57
2022-08-29T00:11:22.407Z,1.90
2022-08-29T00:11:53.831Z,1.38
2022-08-29T00:12:25.263Z,1.37
2022-08-29T00:12:57.790Z,1.46
2022-08-29T00:13:29.409Z,1.74
2022-08-29T00:14:00.842Z,1.80
2022-08-29T00:14:32.277Z,1.82
2022-08-29T00:15:03.708Z,1.41
2022-08-29T00:15:35.169Z,1.79
2022-08-29T00:16:16.311Z,1.65
2022-08-29T00:16:47.889Z,1.70
2022-08-29T00:17:20.101Z,1.42
2022-08-29T00:17:51.533Z,1.73
2022-08-29T00:18:22.956Z,1.89
2022-08-29T00:18:54.375Z,1.75
2022-08-29T00:19:25.799Z,1.66
2022-08-29T00:19:57.291Z,1.33
2022-08-29T00:20:30.312Z,1.48
2022-08-29T00:21:06.115Z,1.73
2022-08-29T00:21:37.543Z,1.63
2022-08-29T00:22:09.078Z,1.74
2022-08-29T00:22:40.512Z,1.70
2022-08-29T00:23:11.952Z,1.80
2022-08-29T00:23:43.385Z,1.68
2022-08-29T00:24:14.816Z,1.77
2022-08-29T00:24:46.251Z,1.62
2022-08-29T00:25:17.676Z,1.72
2022-08-29T00:25:49.108Z,1.63
2022-08-29T00:26:20.531Z,1.68
2022-08-29T00:26:51.951Z,1.45
2022-08-29T00:27:23.432Z,1.52
2022-08-29T00:27:54.859Z,1.73
2022-08-29T00:28:26.294Z,1.67
2022-08-29T00:28:57.724Z,1.82
2022-08-29T00:29:29.319Z,1.55
2022-08-29T00:30:00.749Z,1.55
2022-08-29T00:30:32.188Z,1.88
2022-08-29T00:31:03.627Z,1.86
2022-08-29T00:31:35.067Z,1.64
2022-08-29T00:32:06.601Z,1.35
2022-08-29T00:32:38.049Z,1.23
2022-08-29T00:33:09.477Z,1.58
2022-08-29T00:33:40.908Z,1.72
2022-08-29T00:34:12.342Z,1.99
2022-08-29T00:34:43.763Z,2.12
2022-08-29T00:35:15.196Z,1.97
2022-08-29T00:35:46.629Z,1.74
2022-08-29T00:36:19.083Z,1.43
2022-08-29T00:36:53.977Z,1.83
2022-08-29T00:37:25.400Z,1.45
2022-08-29T00:37:56.831Z,1.66
2022-08-29T00:38:28.561Z,1.89
2022-08-29T00:39:00.005Z,1.68
2022-08-29T00:39:32.904Z,1.54
2022-08-29T00:40:04.560Z,1.51
2022-08-29T00:40:36.037Z,1.33
2022-08-29T00:41:07.520Z,1.52
2022-08-29T00:41:38.947Z,1.25
2022-08-29T00:42:10.377Z,1.64
2022-08-29T00:42:41.853Z,2.11
2022-08-29T00:43:13.280Z,1.95
2022-08-29T00:43:44.710Z,1.65
2022-08-29T00:44:16.137Z,1.58
2022-08-29T00:44:47.589Z,1.63
2022-08-29T00:45:19.012Z,1.40
2022-08-29T00:45:50.455Z,1.39
2022-08-29T00:46:21.938Z,1.58
2022-08-29T00:46:53.370Z,0.93
2022-08-29T00:47:24.802Z,1.34
2022-08-29T00:47:56.333Z,1.29
2022-08-29T00:48:27.779Z,1.68
2022-08-29T00:48:59.217Z,1.61
2022-08-29T00:49:30.647Z,1.48
2022-08-29T00:50:02.082Z,1.40
2022-08-29T00:50:33.525Z,1.57
2022-08-29T00:51:04.956Z,1.31
2022-08-29T00:51:36.398Z,1.56
2022-08-29T00:52:07.827Z,1.30
2022-08-29T00:52:39.371Z,1.19
2022-08-29T00:53:10.809Z,1.80
2022-08-29T00:53:42.235Z,1.67
2022-08-29T00:54:13.668Z,1.59
2022-08-29T00:54:45.094Z,1.52
2022-08-29T00:55:16.520Z,1.68
2022-08-29T00:55:50.225Z,1.68
2022-08-29T00:56:22.604Z,1.85
2022-08-29T00:56:54.038Z,1.55
2022-08-29T00:57:25.469Z,1.65
2022-08-29T00:57:57.012Z,1.83
2022-08-29T00:58:28.456Z,1.38
2022-08-29T00:58:59.891Z,1.53
2022-08-29T00:59:31.326Z,1.46
2022-08-29T01:00:02.760Z,1.51
2022-08-29T01:00:34.188Z,1.49
2022-08-29T01:01:05.672Z,1.78
2022-08-29T01:01:37.186Z,1.46
2022-08-29T01:02:08.651Z,1.68
2022-08-29T01:02:40.711Z,1.51
2022-08-29T01:03:12.299Z,1.32
2022-08-29T01:03:43.727Z,1.73
2022-08-29T01:04:23.838Z,1.56
2022-08-29T01:04:55.763Z,1.12
2022-08-29T01:05:27.191Z,1.48
2022-08-29T01:05:58.617Z,1.43
2022-08-29T01:06:30.054Z,1.22
2022-08-29T01:07:01.484Z,1.51
2022-08-29T01:07:32.908Z,1.47
2022-08-29T01:08:04.649Z,1.49
2022-08-29T01:08:36.075Z,1.69
2022-08-29T01:09:07.506Z,1.38
2022-08-29T01:09:38.929Z,1.27
2022-08-29T01:10:13.436Z,1.39
2022-08-29T01:10:45.285Z,1.48
2022-08-29T01:11:16.712Z,1.59
2022-08-29T01:11:48.239Z,1.51
2022-08-29T01:12:19.679Z,1.38
2022-08-29T01:12:51.100Z,1.50
2022-08-29T01:13:22.559Z,1.49
2022-08-29T01:13:53.979Z,1.93
2022-08-29T01:14:25.410Z,1.81
2022-08-29T01:14:56.839Z,1.85
2022-08-29T01:15:29.948Z,1.42
2022-08-29T01:16:01.455Z,1.50
2022-08-29T01:16:33.002Z,1.48
2022-08-29T01:17:04.475Z,1.36
2022-08-29T01:17:35.916Z,1.59
2022-08-29T01:18:07.650Z,1.44
2022-08-29T01:18:39.145Z,1.44
2022-08-29T01:19:10.578Z,1.62
2022-08-29T01:19:42.009Z,1.78
2022-08-29T01:20:13.441Z,1.50
2022-08-29T01:20:44.870Z,1.21
2022-08-29T01:21:16.299Z,1.65
2022-08-29T01:21:47.732Z,1.73
2022-08-29T01:22:22.032Z,1.26
2022-08-29T01:22:53.464Z,1.62
2022-08-29T01:23:24.920Z,1.79
2022-08-29T01:23:56.362Z,1.67
2022-08-29T01:24:27.813Z,1.39
2022-08-29T01:24:59.337Z,1.73
2022-08-29T01:25:30.771Z,1.53
2022-08-29T01:26:02.205Z,1.71
2022-08-29T01:26:33.645Z,1.71
2022-08-29T01:27:05.091Z,1.60
2022-08-29T01:27:36.524Z,1.75
2022-08-29T01:28:08.392Z,1.59
2022-08-29T01:28:39.857Z,1.37
2022-08-29T01:29:11.292Z,1.54
2022-08-29T01:29:42.722Z,1.41
2022-08-29T01:30:14.151Z,1.24
2022-08-29T01:30:45.585Z,1.07
2022-08-29T01:31:37.527Z,1.51
2022-08-29T01:32:08.513Z,1.32
2022-08-29T01:32:39.951Z,1.42
2022-08-29T01:33:11.375Z,1.42
2022-08-29T01:33:43.404Z,1.43
2022-08-29T01:34:14.835Z,1.08
2022-08-29T01:34:46.298Z,0.82
2022-08-29T01:35:17.727Z,1.29
2022-08-29T01:35:49.159Z,1.59
2022-08-29T01:36:20.592Z,1.24
2022-08-29T01:36:52.020Z,1.34
2022-08-29T01:37:23.442Z,1.38
2022-08-29T01:37:54.871Z,1.48
2022-08-29T01:38:26.304Z,1.63
2022-08-29T01:38:57.745Z,1.32
2022-08-29T01:39:29.479Z,1.82
2022-08-29T01:40:00.959Z,1.26
2022-08-29T01:40:32.443Z,1.59
2022-08-29T01:41:03.899Z,1.16
2022-08-29T01:41:35.336Z,1.20
2022-08-29T01:42:06.765Z,1.30
2022-08-29T01:42:38.197Z,1.34
2022-08-29T01:43:09.648Z,1.18
2022-08-29T01:43:41.081Z,1.27
2022-08-29T01:44:12.561Z,1.19
2022-08-29T01:44:43.984Z,1.50
2022-08-29T01:45:16.035Z,1.85
2022-08-29T01:45:47.543Z,1.40
2022-08-29T01:46:19.024Z,1.48
2022-08-29T01:46:50.456Z,1.31
2022-08-29T01:47:21.887Z,1.45
2022-08-29T01:47:53.307Z,1.32
2022-08-29T01:48:24.732Z,1.20
2022-08-29T01:48:56.164Z,1.48
2022-08-29T01:49:27.645Z,1.34
2022-08-29T01:49:59.078Z,1.23
2022-08-29T01:50:30.512Z,1.37
2022-08-29T01:51:01.939Z,1.36
2022-08-29T01:51:33.364Z,1.68
2022-08-29T01:52:04.794Z,1.35
2022-08-29T01:52:36.227Z,1.15
2022-08-29T01:53:07.660Z,1.33
2022-08-29T01:53:39.097Z,1.51
2022-08-29T01:54:10.582Z,1.62
2022-08-29T01:54:42.007Z,1.21
2022-08-29T01:55:13.437Z,1.50
2022-08-29T01:55:44.863Z,1.80
2022-08-29T01:56:16.289Z,1.35
2022-08-29T01:56:47.721Z,1.52
2022-08-29T01:57:19.152Z,1.12
2022-08-29T01:57:50.580Z,1.36
2022-08-29T01:58:23.034Z,1.52
2022-08-29T01:58:54.464Z,1.25
2022-08-29T01:59:25.951Z,1.62
2022-08-29T01:59:57.373Z,1.31
2022-08-29T02:00:28.800Z,1.20
2022-08-29T02:01:00.263Z,0.99
2022-08-29T02:01:31.779Z,1.53
2022-08-29T02:02:03.295Z,1.48
2022-08-29T02:02:34.857Z,1.96
2022-08-29T02:03:06.352Z,1.32
2022-08-29T02:03:37.771Z,1.26
2022-08-29T02:04:09.200Z,1.56
2022-08-29T02:04:40.736Z,1.53
2022-08-29T02:05:12.169Z,1.29
2022-08-29T02:05:43.600Z,1.28
2022-08-29T02:06:15.032Z,1.17
2022-08-29T02:06:46.457Z,1.11
2022-08-29T02:07:17.889Z,1.30
2022-08-29T02:07:49.315Z,1.37
2022-08-29T02:08:20.744Z,1.32
2022-08-29T02:08:52.174Z,1.26
2022-08-29T02:09:23.607Z,1.17
2022-08-29T02:09:56.432Z,1.55
2022-08-29T02:10:27.861Z,1.49
2022-08-29T02:10:59.288Z,1.66
2022-08-29T02:11:30.707Z,1.29
2022-08-29T02:12:02.144Z,1.49
2022-08-29T02:12:33.573Z,1.22
2022-08-29T02:13:05.000Z,1.54
2022-08-29T02:13:36.428Z,1.41
2022-08-29T02:14:07.857Z,1.07
2022-08-29T02:14:44.683Z,1.39
2022-08-29T02:15:16.112Z,1.37
2022-08-29T02:15:47.534Z,1.36
2022-08-29T02:16:19.046Z,1.33
2022-08-29T02:16:50.499Z,1.14
2022-08-29T02:17:21.922Z,1.27
2022-08-29T02:17:53.344Z,1.23
2022-08-29T02:18:24.788Z,1.51
2022-08-29T02:18:56.216Z,1.36
2022-08-29T02:19:27.683Z,1.22
2022-08-29T02:19:59.262Z,1.18
2022-08-29T02:20:30.695Z,1.24
2022-08-29T02:21:02.127Z,1.17
2022-08-29T02:21:33.560Z,1.61
2022-08-29T02:22:04.998Z,1.34
2022-08-29T02:22:36.423Z,1.47
2022-08-29T02:23:21.895Z,1.60
2022-08-29T02:24:04.626Z,1.20
2022-08-29T02:24:47.604Z,1.41
2022-08-29T02:25:19.152Z,1.28
2022-08-29T02:25:50.576Z,1.10
2022-08-29T02:26:22.001Z,1.14
2022-08-29T02:26:53.500Z,1.18
2022-08-29T02:27:24.934Z,1.44
2022-08-29T02:27:56.354Z,1.10
2022-08-29T02:28:27.787Z,1.26
2022-08-29T02:28:59.212Z,1.46
2022-08-29T02:29:30.910Z,1.24
2022-08-29T02:30:09.731Z,1.45
2022-08-29T02:30:41.606Z,1.47
2022-08-29T02:31:13.054Z,1.65
2022-08-29T02:31:44.596Z,1.18
2022-08-29T02:32:16.137Z,1.44
2022-08-29T02:32:47.577Z,1.31
2022-08-29T02:33:19.193Z,1.07
2022-08-29T02:33:50.676Z,1.09
2022-08-29T02:34:22.104Z,1.72
2022-08-29T02:34:53.531Z,1.38
2022-08-29T02:35:25.493Z,1.12
2022-08-29T02:35:57.005Z,0.92
2022-08-29T02:36:28.933Z,1.06
2022-08-29T02:37:01.031Z,1.14
2022-08-29T02:37:32.457Z,1.52
2022-08-29T02:38:03.892Z,1.39
2022-08-29T02:38:35.336Z,1.40
2022-08-29T02:39:06.767Z,1.05
2022-08-29T02:39:38.275Z,1.21
2022-08-29T02:40:09.726Z,1.18
2022-08-29T02:40:41.285Z,1.05
2022-08-29T02:41:14.355Z,1.34
2022-08-29T02:41:45.920Z,1.22
2022-08-29T02:42:17.381Z,1.35
2022-08-29T02:42:48.807Z,1.25
2022-08-29T02:43:20.237Z,1.13
2022-08-29T02:43:51.659Z,1.06
2022-08-29T02:44:23.079Z,1.19
2022-08-29T02:44:54.511Z,1.08
2022-08-29T02:45:25.940Z,1.22
2022-08-29T02:45:57.475Z,1.06
2022-08-29T02:46:28.939Z,1.15
2022-08-29T02:47:00.444Z,1.21
2022-08-29T02:47:31.924Z,1.27
2022-08-29T02:48:03.416Z,1.57
2022-08-29T02:48:34.831Z,1.43
2022-08-29T02:49:06.255Z,1.08
2022-08-29T02:49:38.835Z,1.04
2022-08-29T02:50:10.877Z,0.99
2022-08-29T02:50:42.361Z,1.09
2022-08-29T02:51:13.883Z,1.17
2022-08-29T02:51:45.313Z,1.07
2022-08-29T02:52:16.741Z,1.45
2022-08-29T02:52:48.169Z,1.28
2022-08-29T02:53:19.602Z,1.58
2022-08-29T02:53:51.032Z,1.23
2022-08-29T02:54:22.460Z,0.89
2022-08-29T02:54:53.897Z,1.06
2022-08-29T02:55:26.406Z,1.14
2022-08-29T02:55:57.842Z,1.38
2022-08-29T02:56:29.393Z,1.38
2022-08-29T02:57:00.816Z,1.31
2022-08-29T02:57:32.266Z,1.16
2022-08-29T02:58:03.701Z,1.17
2022-08-29T02:58:35.128Z,1.02
2022-08-29T02:59:06.554Z,1.34
2022-08-29T02:59:37.981Z,1.09
2022-08-29T03:00:09.413Z,1.16
2022-08-29T03:00:40.875Z,1.34
2022-08-29T03:01:12.343Z,1.10
2022-08-29T03:01:43.864Z,1.13
2022-08-29T03:02:15.371Z,1.35
2022-08-29T03:02:46.933Z,1.18
2022-08-29T03:03:18.366Z,0.89
2022-08-29T03:03:49.787Z,1.34
2022-08-29T03:04:21.212Z,1.38
2022-08-29T03:04:52.676Z,1.16
2022-08-29T03:05:24.106Z,1.08
2022-08-29T03:05:55.536Z,1.09
2022-08-29T03:06:26.965Z,1.39
2022-08-29T03:06:58.419Z,1.14
2022-08-29T03:07:29.848Z,1.02
2022-08-29T03:08:01.278Z,0.91
2022-08-29T03:08:32.703Z,1.10
2022-08-29T03:09:04.129Z,1.21
2022-08-29T03:09:35.556Z,1.32
2022-08-29T03:10:07.149Z,1.41
2022-08-29T03:10:38.573Z,1.12
2022-08-29T03:11:10.004Z,1.41
2022-08-29T03:11:41.441Z,1.23
2022-08-29T03:12:12.869Z,1.08
2022-08-29T03:12:44.292Z,1.26
2022-08-29T03:13:15.721Z,1.20
2022-08-29T03:13:47.143Z,1.15
2022-08-29T03:14:18.567Z,1.25
2022-08-29T03:14:49.988Z,1.34
2022-08-29T03:15:23.669Z,0.87
2022-08-29T03:15:55.149Z,0.91
2022-08-29T03:16:26.719Z,0.97
2022-08-29T03:16:58.204Z,1.15
2022-08-29T03:17:29.640Z,1.35
2022-08-29T03:18:01.078Z,1.25
2022-08-29T03:18:32.517Z,1.28
2022-08-29T03:19:03.948Z,1.08
2022-08-29T03:19:37.196Z,1.09
2022-08-29T03:20:09.150Z,1.24
2022-08-29T03:20:40.588Z,1.31
2022-08-29T03:21:12.017Z,1.05
2022-08-29T03:21:43.445Z,0.97
2022-08-29T03:22:14.880Z,1.28
2022-08-29T03:22:46.464Z,1.19
2022-08-29T03:23:17.959Z,1.33
2022-08-29T03:23:49.387Z,1.25
2022-08-29T03:24:26.349Z,1.06
2022-08-29T03:24:58.555Z,1.39
2022-08-29T03:25:30.074Z,1.17
2022-08-29T03:26:01.504Z,1.15
2022-08-29T03:26:32.937Z,1.07
2022-08-29T03:27:04.354Z,0.93
2022-08-29T03:27:35.803Z,1.28
2022-08-29T03:28:07.302Z,1.12
2022-08-29T03:28:38.747Z,1.26
2022-08-29T03:29:10.178Z,1.17
2022-08-29T03:29:41.610Z,1.06
2022-08-29T03:30:13.044Z,1.07
2022-08-29T03:30:44.752Z,1.03
2022-08-29T03:31:16.230Z,0.94
2022-08-29T03:31:47.728Z,1.02
2022-08-29T03:32:19.188Z,1.34
2022-08-29T03:32:50.619Z,1.05
2022-08-29T03:33:22.045Z,0.87
2022-08-29T03:33:53.476Z,1.25
2022-08-29T03:34:24.905Z,1.14
2022-08-29T03:34:56.339Z,0.98
2022-08-29T03:35:27.767Z,1.25
2022-08-29T03:35:59.247Z,1.07
2022-08-29T03:36:30.675Z,0.92
2022-08-29T03:37:02.112Z,0.89
2022-08-29T03:37:33.547Z,0.88
2022-08-29T03:38:04.981Z,0.85
2022-08-29T03:38:36.419Z,1.08
2022-08-29T03:39:07.851Z,1.09
2022-08-29T03:39:39.289Z,0.99
2022-08-29T03:40:10.751Z,0.97
2022-08-29T03:40:42.331Z,0.96
2022-08-29T03:41:13.857Z,1.11
2022-08-29T03:41:45.278Z,1.13
2022-08-29T03:42:16.712Z,1.08
2022-08-29T03:42:48.136Z,1.31
2022-08-29T03:43:19.560Z,1.06
2022-08-29T03:43:50.989Z,0.98
2022-08-29T03:44:22.452Z,0.99
2022-08-29T03:44:53.880Z,1.04
2022-08-29T03:45:25.313Z,1.02
2022-08-29T03:45:56.743Z,0.71
2022-08-29T03:46:28.422Z,0.92
2022-08-29T03:46:59.947Z,1.27
2022-08-29T03:47:31.424Z,1.16
2022-08-29T03:48:02.848Z,1.03
2022-08-29T03:48:34.281Z,1.10
2022-08-29T03:49:05.708Z,1.35
2022-08-29T03:49:37.136Z,1.06
2022-08-29T03:50:08.566Z,0.81
2022-08-29T03:50:39.996Z,1.20
2022-08-29T03:51:11.421Z,1.44
2022-08-29T03:51:42.939Z,0.94
2022-08-29T03:52:14.360Z,0.94
2022-08-29T03:52:45.822Z,0.79
2022-08-29T03:53:17.261Z,0.81
2022-08-29T03:53:48.737Z,1.03
2022-08-29T03:54:20.172Z,0.99
2022-08-29T03:54:51.601Z,1.08
2022-08-29T03:55:23.024Z,1.24
2022-08-29T03:55:54.457Z,1.04
2022-08-29T03:56:25.887Z,1.20
2022-08-29T03:56:57.416Z,1.25
2022-08-29T03:57:28.839Z,1.47
2022-08-29T03:58:02.772Z,1.29
2022-08-29T03:58:34.192Z,1.30
2022-08-29T03:59:05.621Z,1.25
2022-08-29T03:59:37.057Z,1.09
2022-08-29T04:00:08.501Z,0.97
2022-08-29T04:00:39.927Z,0.95
2022-08-29T04:01:11.360Z,1.19
2022-08-29T04:01:42.843Z,1.31
2022-08-29T04:02:14.476Z,1.00
2022-08-29T04:02:46.037Z,0.93
2022-08-29T04:03:17.598Z,0.92
2022-08-29T04:03:49.051Z,0.98
2022-08-29T04:04:20.478Z,1.06
2022-08-29T04:04:51.908Z,1.04
2022-08-29T04:05:23.332Z,0.93
2022-08-29T04:05:56.021Z,1.24
2022-08-29T04:06:27.960Z,1.21
2022-08-29T04:06:59.389Z,1.12
2022-08-29T04:07:30.852Z,1.04
2022-08-29T04:08:02.292Z,0.95
2022-08-29T04:08:33.737Z,0.94
2022-08-29T04:09:05.173Z,1.34
2022-08-29T04:09:36.608Z,1.11
2022-08-29T04:10:08.027Z,0.79
2022-08-29T04:10:39.461Z,0.93
2022-08-29T04:11:10.893Z,0.79
2022-08-29T04:11:42.333Z,1.15
2022-08-29T04:12:13.770Z,1.65
2022-08-29T04:12:45.320Z,1.21
2022-08-29T04:13:16.749Z,1.05
2022-08-29T04:13:48.177Z,1.05
2022-08-29T04:14:19.610Z,1.11
2022-08-29T04:14:51.044Z,0.76
2022-08-29T04:15:22.471Z,0.95
2022-08-29T04:15:53.968Z,0.88
2022-08-29T04:16:25.495Z,0.89
2022-08-29T04:17:02.080Z,1.03
2022-08-29T04:17:33.513Z,1.31
2022-08-29T04:18:06.835Z,1.56
2022-08-29T04:18:38.439Z,1.05
2022-08-29T04:19:09.869Z,1.01
2022-08-29T04:19:41.296Z,1.05
2022-08-29T04:20:12.724Z,1.00
2022-08-29T04:20:44.152Z,1.01
2022-08-29T04:21:15.590Z,1.04
2022-08-29T04:21:47.021Z,0.99
2022-08-29T04:22:18.455Z,0.80
2022-08-29T04:22:49.953Z,0.90
2022-08-29T04:23:21.436Z,1.01
2022-08-29T04:23:52.864Z,1.17
2022-08-29T04:24:24.294Z,1.03
2022-08-29T04:24:55.721Z,0.93
2022-08-29T04:25:27.185Z,0.94
2022-08-29T04:26:12.743Z,1.07
2022-08-29T04:26:50.014Z,0.98
2022-08-29T04:27:21.444Z,0.81
2022-08-29T04:27:52.868Z,1.02
2022-08-29T04:28:24.302Z,1.26
2022-08-29T04:28:55.731Z,1.07
2022-08-29T04:29:27.162Z,1.13
2022-08-29T04:29:58.583Z,1.00
2022-08-29T04:30:30.012Z,1.01
2022-08-29T04:31:01.491Z,1.10
2022-08-29T04:31:32.987Z,0.93
2022-08-29T04:32:04.490Z,1.07
2022-08-29T04:32:35.912Z,0.84
2022-08-29T04:33:07.455Z,1.03
2022-08-29T04:33:38.880Z,0.67
2022-08-29T04:34:10.317Z,0.88
2022-08-29T04:34:41.742Z,1.23
2022-08-29T04:35:13.175Z,1.28
2022-08-29T04:35:44.605Z,1.01
2022-08-29T04:36:16.033Z,1.07
2022-08-29T04:36:47.464Z,0.82
2022-08-29T04:37:18.892Z,0.66
2022-08-29T04:37:50.318Z,0.90
2022-08-29T04:38:21.821Z,0.96
2022-08-29T04:38:53.259Z,1.09
2022-08-29T04:39:24.686Z,0.80
2022-08-29T04:39:56.175Z,1.06
2022-08-29T04:40:27.725Z,1.24
2022-08-29T04:40:59.183Z,0.84
2022-08-29T04:41:32.952Z,0.83
2022-08-29T04:42:04.644Z,0.95
2022-08-29T04:42:36.080Z,0.98
2022-08-29T04:43:07.507Z,1.04
2022-08-29T04:43:39.066Z,0.84
2022-08-29T04:44:10.489Z,0.96
2022-08-29T04:44:41.920Z,0.79
2022-08-29T04:45:13.338Z,1.08
2022-08-29T04:45:44.792Z,1.45
2022-08-29T04:46:24.376Z,0.92
2022-08-29T04:46:56.113Z,0.95
2022-08-29T04:47:27.575Z,0.98
2022-08-29T04:48:03.086Z,1.00
2022-08-29T04:48:35.140Z,0.72
2022-08-29T04:49:06.569Z,0.82
2022-08-29T04:49:37.998Z,0.55
2022-08-29T04:50:09.424Z,1.04
2022-08-29T04:50:40.857Z,1.27
2022-08-29T04:51:12.296Z,0.94
2022-08-29T04:51:43.732Z,1.26
2022-08-29T04:52:15.172Z,0.72
2022-08-29T04:52:46.600Z,1.08
2022-08-29T04:53:18.142Z,1.07
2022-08-29T04:53:49.563Z,1.04
2022-08-29T04:54:20.988Z,1.06
2022-08-29T04:54:52.411Z,1.33
2022-08-29T04:55:25.701Z,0.88
2022-08-29T04:55:57.315Z,1.05
2022-08-29T04:56:28.968Z,1.37
2022-08-29T04:57:01.275Z,1.24
2022-08-29T04:57:32.705Z,0.95
2022-08-29T04:58:04.255Z,0.95
2022-08-29T04:58:35.777Z,1.14
2022-08-29T04:59:07.475Z,1.36
2022-08-29T04:59:38.908Z,0.89
2022-08-29T05:00:10.341Z,0.93
2022-08-29T05:00:41.776Z,0.86
2022-08-29T05:01:13.238Z,0.91
2022-08-29T05:01:44.725Z,1.43
2022-08-29T05:02:16.165Z,0.75
2022-08-29T05:02:47.655Z,0.86
2022-08-29T05:03:19.124Z,0.85
2022-08-29T05:03:50.660Z,1.03
2022-08-29T05:04:22.088Z,0.83
2022-08-29T05:04:53.525Z,1.09
2022-08-29T05:05:24.947Z,1.22
2022-08-29T05:05:56.374Z,0.96
2022-08-29T05:06:27.804Z,0.86
2022-08-29T05:06:59.232Z,0.96
2022-08-29T05:07:30.662Z,1.04
2022-08-29T05:08:04.037Z,0.96
2022-08-29T05:08:35.463Z,1.26
2022-08-29T05:09:06.972Z,1.28
2022-08-29T05:09:38.400Z,1.13
2022-08-29T05:10:09.824Z,1.26
2022-08-29T05:10:41.253Z,0.85
2022-08-29T05:11:12.687Z,0.95
2022-08-29T05:11:44.121Z,1.03
2022-08-29T05:12:15.554Z,1.19
2022-08-29T05:12:46.992Z,0.84
2022-08-29T05:13:18.424Z,1.20
2022-08-29T05:13:49.907Z,1.33
2022-08-29T05:14:21.380Z,1.03
2022-08-29T05:14:52.809Z,1.16
2022-08-29T05:15:24.237Z,1.29
2022-08-29T05:15:55.908Z,0.82
2022-08-29T05:16:27.393Z,0.81
2022-08-29T05:16:58.824Z,0.94
2022-08-29T05:17:30.246Z,0.80
2022-08-29T05:18:01.672Z,0.82
2022-08-29T05:18:33.109Z,0.88
2022-08-29T05:19:04.532Z,0.80
2022-08-29T05:19:36.104Z,1.18
2022-08-29T05:20:14.243Z,1.02
2022-08-29T05:20:45.663Z,1.14
2022-08-29T05:21:17.087Z,1.05
2022-08-29T05:21:49.448Z,1.17
2022-08-29T05:22:20.937Z,1.13
2022-08-29T05:22:52.371Z,1.13
2022-08-29T05:23:23.803Z,1.18
2022-08-29T05:23:55.238Z,1.09
2022-08-29T05:24:26.675Z,1.06
2022-08-29T05:24:58.160Z,1.12
2022-08-29T05:25:29.579Z,0.98
2022-08-29T05:26:01.984Z,0.83
2022-08-29T05:26:33.413Z,1.19
2022-08-29T05:27:04.849Z,1.09
2022-08-29T05:27:36.280Z,1.11
2022-08-29T05:28:07.747Z,1.18
2022-08-29T05:28:39.276Z,0.97
2022-08-29T05:29:10.709Z,1.00
2022-08-29T05:29:42.141Z,1.14
2022-08-29T05:30:13.657Z,0.93
2022-08-29T05:30:45.123Z,1.07
2022-08-29T05:31:16.638Z,1.08
2022-08-29T05:31:48.097Z,1.21
2022-08-29T05:32:19.545Z,1.22
2022-08-29T05:32:51.000Z,1.11
2022-08-29T05:33:22.423Z,0.98
2022-08-29T05:33:53.851Z,1.18
2022-08-29T05:34:33.974Z,1.23
2022-08-29T05:35:06.522Z,1.34
2022-08-29T05:35:38.018Z,1.32
2022-08-29T05:36:09.449Z,1.03
2022-08-29T05:36:40.881Z,0.97
2022-08-29T05:37:12.313Z,1.23
2022-08-29T05:37:43.760Z,1.13
2022-08-29T05:38:15.267Z,1.04
2022-08-29T05:38:46.743Z,1.23
2022-08-29T05:39:18.175Z,1.16
2022-08-29T05:39:49.614Z,1.13
2022-08-29T05:40:21.106Z,0.98
2022-08-29T05:40:52.594Z,1.17
2022-08-29T05:41:24.015Z,1.14
2022-08-29T05:41:55.445Z,1.16
2022-08-29T05:42:26.889Z,1.37
2022-08-29T05:42:58.317Z,1.11
2022-08-29T05:43:29.752Z,1.11
2022-08-29T05:44:01.172Z,0.99
2022-08-29T05:44:35.244Z,1.14
2022-08-29T05:45:06.985Z,1.21
2022-08-29T05:45:38.532Z,1.09
2022-08-29T05:46:10.090Z,1.13
2022-08-29T05:46:41.659Z,1.30
2022-08-29T05:47:13.212Z,1.19
2022-08-29T05:47:44.644Z,1.16
2022-08-29T05:48:16.260Z,1.28
2022-08-29T05:48:47.775Z,1.01
2022-08-29T05:49:19.211Z,1.49
2022-08-29T05:49:50.649Z,1.26
2022-08-29T05:50:22.088Z,1.19
2022-08-29T05:50:53.608Z,1.23
2022-08-29T05:51:25.040Z,1.19
2022-08-29T05:51:56.462Z,0.85
2022-08-29T05:52:27.884Z,1.21
2022-08-29T05:52:59.313Z,1.04
2022-08-29T05:53:30.740Z,1.28
2022-08-29T05:54:02.167Z,1.34
2022-08-29T05:54:33.614Z,1.13
2022-08-29T05:55:05.045Z,1.16
2022-08-29T05:55:36.469Z,1.06
2022-08-29T05:56:07.983Z,1.19
2022-08-29T05:56:39.417Z,1.33
2022-08-29T05:57:14.158Z,1.16
2022-08-29T05:57:48.177Z,0.96
2022-08-29T05:58:19.605Z,1.34
2022-08-29T05:58:51.046Z,1.14
2022-08-29T05:59:22.478Z,1.09
2022-08-29T05:59:53.908Z,0.96
2022-08-29T06:00:25.337Z,1.13
2022-08-29T06:00:56.773Z,1.27
2022-08-29T06:01:29.423Z,0.81
2022-08-29T06:02:04.253Z,1.06
2022-08-29T06:02:35.737Z,1.22
2022-08-29T06:03:07.324Z,1.25
2022-08-29T06:03:41.070Z,1.29
2022-08-29T06:04:15.644Z,1.17
2022-08-29T06:04:47.076Z,0.94
2022-08-29T06:05:18.508Z,0.97
2022-08-29T06:05:49.928Z,1.47
2022-08-29T06:06:21.359Z,1.07
2022-08-29T06:06:54.614Z,1.04
2022-08-29T06:07:26.042Z,1.27
2022-08-29T06:07:57.468Z,1.01
2022-08-29T06:08:28.909Z,1.14
2022-08-29T06:09:00.335Z,1.02
2022-08-29T06:09:31.784Z,1.14
2022-08-29T06:10:03.680Z,1.08
2022-08-29T06:10:35.555Z,1.03
2022-08-29T06:11:06.985Z,1.16
2022-08-29T06:11:38.418Z,1.40
2022-08-29T06:12:09.921Z,1.14
2022-08-29T06:12:41.407Z,1.09
2022-08-29T06:13:12.827Z,1.45
2022-08-29T06:13:44.257Z,1.08
2022-08-29T06:14:15.682Z,0.99
2022-08-29T06:14:50.157Z,1.31
2022-08-29T06:15:22.216Z,1.02
2022-08-29T06:15:53.652Z,1.01
2022-08-29T06:16:25.099Z,0.97
2022-08-29T06:16:56.519Z,1.09
2022-08-29T06:17:28.109Z,1.01
2022-08-29T06:17:59.574Z,1.08
2022-08-29T06:18:35.425Z,1.12
2022-08-29T06:19:07.713Z,1.07
2022-08-29T06:19:39.147Z,1.02
2022-08-29T06:20:10.573Z,1.11
2022-08-29T06:20:42.003Z,1.24
2022-08-29T06:21:13.427Z,0.95
2022-08-29T06:21:44.856Z,1.03
2022-08-29T06:22:16.293Z,1.49
2022-08-29T06:22:47.873Z,1.00
2022-08-29T06:23:19.313Z,1.17
2022-08-29T06:23:54.940Z,0.97
2022-08-29T06:24:26.370Z,0.94
2022-08-29T06:24:58.509Z,1.11
2022-08-29T06:25:39.287Z,0.93
2022-08-29T06:26:11.574Z,1.23
2022-08-29T06:26:43.004Z,1.14
2022-08-29T06:27:14.440Z,1.18
2022-08-29T06:27:45.873Z,1.36
2022-08-29T06:28:17.641Z,0.98
2022-08-29T06:28:55.447Z,1.10
2022-08-29T06:29:26.880Z,1.33
2022-08-29T06:30:01.774Z,1.64
2022-08-29T06:30:33.840Z,1.37
2022-08-29T06:31:05.765Z,0.93
2022-08-29T06:31:37.350Z,0.80
2022-08-29T06:32:08.797Z,1.18
2022-08-29T06:32:40.487Z,1.04
2022-08-29T06:33:12.369Z,0.89
2022-08-29T06:33:43.955Z,1.22
2022-08-29T06:34:15.414Z,1.33
2022-08-29T06:34:46.837Z,1.32
2022-08-29T06:35:18.264Z,1.13
2022-08-29T06:35:49.687Z,1.18
2022-08-29T06:36:21.119Z,0.95
2022-08-29T06:36:52.936Z,1.01
2022-08-29T06:37:24.463Z,1.41
2022-08-29T06:37:55.898Z,0.87
2022-08-29T06:38:27.324Z,1.03
2022-08-29T06:38:58.825Z,0.93
2022-08-29T06:39:30.289Z,1.16
2022-08-29T06:40:01.765Z,1.05
2022-08-29T06:40:33.258Z,0.95
2022-08-29T06:41:04.700Z,1.28
2022-08-29T06:41:36.176Z,0.98
2022-08-29T06:42:07.614Z,0.92
2022-08-29T06:42:39.049Z,1.15
2022-08-29T06:43:10.479Z,1.17
2022-08-29T06:43:41.915Z,0.98
2022-08-29T06:44:13.416Z,1.09
2022-08-29T06:44:45.131Z,1.23
2022-08-29T06:45:16.662Z,1.13
2022-08-29T06:45:48.129Z,1.28
2022-08-29T06:46:19.615Z,0.93
2022-08-29T06:46:51.196Z,1.32
2022-08-29T06:47:22.629Z,1.07
2022-08-29T06:47:54.060Z,0.96
2022-08-29T06:48:29.389Z,0.99
2022-08-29T06:49:01.181Z,1.32
2022-08-29T06:49:32.599Z,0.89
2022-08-29T06:50:04.031Z,1.32
2022-08-29T06:50:35.460Z,1.00
2022-08-29T06:51:07.569Z,0.97
2022-08-29T06:51:39.028Z,1.32
2022-08-29T06:52:10.599Z,1.25
2022-08-29T06:52:42.025Z,0.96
2022-08-29T06:53:27.469Z,1.33
2022-08-29T06:54:03.304Z,1.60
2022-08-29T06:54:38.567Z,1.38
2022-08-29T06:55:10.010Z,0.96
2022-08-29T06:55:42.184Z,1.13
2022-08-29T06:56:14.548Z,1.17
2022-08-29T06:56:45.985Z,1.12
2022-08-29T06:57:17.471Z,1.31
2022-08-29T06:57:48.898Z,1.15
2022-08-29T06:58:20.332Z,1.17
2022-08-29T06:58:51.756Z,1.13
2022-08-29T06:59:23.180Z,1.05
2022-08-29T06:59:54.608Z,0.81
2022-08-29T07:00:26.030Z,1.30
2022-08-29T07:00:57.462Z,1.26
2022-08-29T07:01:28.921Z,1.43
2022-08-29T07:02:00.449Z,1.20
2022-08-29T07:02:32.045Z,1.02
2022-08-29T07:03:03.576Z,1.13
2022-08-29T07:03:35.052Z,1.39